createdAt,value
2023-01-25T00:01:31.465Z,88.90
2023-01-25T00:04:56.553Z,88.50
2023-01-25T00:08:21.218Z,88.70
2023-01-25T00:11:46.380Z,88.60
2023-01-25T00:15:13.162Z,88.70
2023-01-25T00:18:36.945Z,88.60
2023-01-25T00:22:02.037Z,88.50
2023-01-25T00:25:26.522Z,88.10
2023-01-25T00:28:51.042Z,88.30
2023-01-25T00:33:12.157Z,89.60
2023-01-25T00:36:42.704Z,89.80
2023-01-25T00:40:10.422Z,90.10
2023-01-25T00:43:35.437Z,90.10
2023-01-25T00:46:59.473Z,90.00
2023-01-25T00:50:24.104Z,90.10
2023-01-25T00:53:50.116Z,90.30
2023-01-25T00:57:14.610Z,90.30
2023-01-25T01:00:38.576Z,90.60
2023-01-25T01:04:06.652Z,90.70
2023-01-25T01:07:30.565Z,90.80
2023-01-25T01:11:00.038Z,90.80
2023-01-25T01:14:25.307Z,90.90
2023-01-25T01:17:50.462Z,90.60
2023-01-25T01:21:15.523Z,90.70
2023-01-25T01:24:39.723Z,90.70
2023-01-25T01:28:04.780Z,90.70
2023-01-25T01:31:29.048Z,90.40
2023-01-25T01:35:08.912Z,90.30
2023-01-25T01:38:34.721Z,90.30
2023-01-25T01:41:59.610Z,90.20
2023-01-25T01:45:56.311Z,90.50
2023-01-25T01:49:33.693Z,90.60
2023-01-25T01:53:11.631Z,90.50
2023-01-25T01:56:41.585Z,90.50
2023-01-25T02:00:09.627Z,90.30
2023-01-25T02:03:45.667Z,90.60
2023-01-25T02:07:14.520Z,90.70
2023-01-25T02:10:40.034Z,90.80
2023-01-25T02:14:05.073Z,91.10
2023-01-25T02:17:32.617Z,91.30
2023-01-25T02:21:00.196Z,91.40
2023-01-25T02:24:31.939Z,91.50
2023-01-25T02:28:03.413Z,91.50
2023-01-25T02:31:28.026Z,91.60
2023-01-25T02:34:52.596Z,91.70
2023-01-25T02:38:18.366Z,91.70
2023-01-25T02:41:44.955Z,91.70
2023-01-25T02:45:14.325Z,91.70
2023-01-25T02:48:38.220Z,91.40
2023-01-25T02:52:05.146Z,91.50
2023-01-25T02:55:32.119Z,91.70
2023-01-25T02:58:55.828Z,91.90
2023-01-25T03:02:21.000Z,91.90
2023-01-25T03:05:45.896Z,91.80
2023-01-25T03:09:12.415Z,91.80
2023-01-25T03:12:40.605Z,91.60
2023-01-25T03:16:06.352Z,91.60
2023-01-25T03:19:40.417Z,91.60
2023-01-25T03:23:04.362Z,91.60
2023-01-25T03:26:29.947Z,91.90
2023-01-25T03:30:14.881Z,91.90
2023-01-25T03:33:38.726Z,91.90
2023-01-25T03:37:04.104Z,92.60
2023-01-25T03:40:30.720Z,92.90
2023-01-25T03:43:54.841Z,93.10
2023-01-25T03:47:23.378Z,93.30
2023-01-25T03:50:52.436Z,93.30
2023-01-25T03:54:19.160Z,93.30
2023-01-25T03:57:43.746Z,93.40
2023-01-25T04:01:09.123Z,93.20
2023-01-25T04:04:39.097Z,93.30
2023-01-25T04:08:03.631Z,93.40
2023-01-25T04:11:35.094Z,93.30
2023-01-25T04:14:59.698Z,93.20
2023-01-25T04:18:23.679Z,93.00
2023-01-25T04:21:47.703Z,93.30
2023-01-25T04:25:12.042Z,93.60
2023-01-25T04:28:43.165Z,93.60
2023-01-25T04:32:07.864Z,93.50
2023-01-25T04:35:32.736Z,93.60
2023-01-25T04:38:58.775Z,93.70
2023-01-25T04:42:26.466Z,93.70
2023-01-25T04:45:54.082Z,94.10
2023-01-25T04:49:23.939Z,93.70
2023-01-25T04:52:47.967Z,93.60
2023-01-25T04:56:11.752Z,93.40
2023-01-25T04:59:42.739Z,93.50
2023-01-25T05:03:08.980Z,93.50
2023-01-25T05:06:35.739Z,93.60
2023-01-25T05:09:59.780Z,93.60
2023-01-25T05:13:24.783Z,93.70
2023-01-25T05:16:59.944Z,93.70
2023-01-25T05:20:26.150Z,93.80
2023-01-25T05:23:50.834Z,93.60
2023-01-25T05:27:17.411Z,93.80
2023-01-25T05:30:53.073Z,93.80
2023-01-25T05:34:23.591Z,93.70
2023-01-25T05:37:49.214Z,93.60
2023-01-25T05:41:19.354Z,93.70
2023-01-25T05:44:46.300Z,93.60
2023-01-25T05:48:11.911Z,93.80
2023-01-25T05:51:36.323Z,93.60
2023-01-25T05:55:02.519Z,93.90
2023-01-25T05:58:26.413Z,93.90
2023-01-25T06:01:50.286Z,94.00
2023-01-25T06:05:15.954Z,93.90
2023-01-25T06:08:40.984Z,94.00
2023-01-25T06:12:07.934Z,94.30
2023-01-25T06:15:33.965Z,94.20
2023-01-25T06:19:25.830Z,94.40
2023-01-25T06:23:03.871Z,94.40
2023-01-25T06:26:27.911Z,94.50
2023-01-25T06:29:53.187Z,94.50
2023-01-25T06:33:17.125Z,94.00
2023-01-25T06:36:40.950Z,94.00
2023-01-25T06:40:05.500Z,94.20
2023-01-25T06:43:29.583Z,94.50
2023-01-25T06:46:55.395Z,94.70
2023-01-25T06:50:20.073Z,94.50
2023-01-25T06:53:45.910Z,94.70
2023-01-25T06:57:12.103Z,94.90
2023-01-25T07:00:35.887Z,94.70
2023-01-25T07:04:01.312Z,94.70
2023-01-25T07:07:24.917Z,94.60
2023-01-25T07:10:55.319Z,94.70
2023-01-25T07:14:22.543Z,94.70
2023-01-25T07:17:46.916Z,94.80
2023-01-25T07:21:14.573Z,94.50
2023-01-25T07:24:39.052Z,94.60
2023-01-25T07:28:02.882Z,94.50
2023-01-25T07:31:27.137Z,94.50
2023-01-25T07:34:50.928Z,94.40
2023-01-25T07:38:16.383Z,94.10
2023-01-25T07:41:41.526Z,94.10
2023-01-25T07:45:11.167Z,93.90
2023-01-25T07:48:38.624Z,94.10
2023-01-25T07:52:03.177Z,94.20
2023-01-25T07:55:30.484Z,94.20
2023-01-25T07:58:57.936Z,94.30
2023-01-25T08:02:22.248Z,94.50
2023-01-25T08:05:47.104Z,94.60
2023-01-25T08:09:14.546Z,94.80
2023-01-25T08:12:39.464Z,94.90
2023-01-25T08:16:03.532Z,94.90
2023-01-25T08:19:28.158Z,94.80
2023-01-25T08:22:53.555Z,94.70
2023-01-25T08:26:18.604Z,94.90
2023-01-25T08:29:51.320Z,94.50
2023-01-25T08:33:14.985Z,94.50
2023-01-25T08:36:38.768Z,94.30
2023-01-25T08:40:02.452Z,94.50
2023-01-25T08:43:26.227Z,94.60
2023-01-25T08:46:51.596Z,94.70
2023-01-25T08:50:16.323Z,94.70
2023-01-25T08:53:39.893Z,94.80
2023-01-25T08:57:06.216Z,94.90
2023-01-25T09:00:29.880Z,94.80
2023-01-25T09:03:55.741Z,94.80
2023-01-25T09:07:19.370Z,94.90
2023-01-25T09:10:43.016Z,94.90
2023-01-25T09:14:06.762Z,94.60
2023-01-25T09:17:31.229Z,94.70
2023-01-25T09:20:56.385Z,94.80
2023-01-25T09:24:20.092Z,94.60
2023-01-25T09:27:43.814Z,94.20
2023-01-25T09:31:21.205Z,94.00
2023-01-25T09:35:08.803Z,93.70
2023-01-25T09:38:34.031Z,93.70
2023-01-25T09:42:21.490Z,94.00
2023-01-25T09:45:45.610Z,94.40
2023-01-25T09:49:29.958Z,94.60
2023-01-25T09:53:21.669Z,94.60
2023-01-25T09:56:51.471Z,94.40
2023-01-25T10:00:20.715Z,94.70
2023-01-25T10:03:50.872Z,94.80
2023-01-25T10:07:20.709Z,94.80
2023-01-25T10:10:45.263Z,94.90
2023-01-25T10:14:16.167Z,94.80
2023-01-25T10:17:41.466Z,94.90
2023-01-25T10:21:11.914Z,95.10
2023-01-25T10:24:54.700Z,95.20
2023-01-25T10:28:40.842Z,95.10
2023-01-25T10:32:16.729Z,95.00
2023-01-25T10:35:47.169Z,94.90
2023-01-25T10:39:11.497Z,95.10
2023-01-25T10:42:45.917Z,95.00
2023-01-25T10:46:22.560Z,95.00
2023-01-25T10:49:51.451Z,95.10
2023-01-25T10:53:37.273Z,94.90
2023-01-25T10:57:01.148Z,94.30
2023-01-25T11:00:30.569Z,94.70
2023-01-25T11:03:54.992Z,95.00
2023-01-25T11:07:28.855Z,95.00
2023-01-25T11:10:53.585Z,94.80
2023-01-25T11:14:18.804Z,94.80
2023-01-25T11:17:42.667Z,94.30
2023-01-25T11:21:08.174Z,94.20
2023-01-25T11:24:34.883Z,93.90
2023-01-25T11:28:19.639Z,94.20
2023-01-25T11:31:46.475Z,94.10
2023-01-25T11:35:14.969Z,94.40
2023-01-25T11:38:40.216Z,94.60
2023-01-25T11:42:18.121Z,94.50
2023-01-25T11:46:03.048Z,94.70
2023-01-25T11:49:37.853Z,94.70
2023-01-25T11:53:17.490Z,94.50
2023-01-25T11:56:55.077Z,94.30
2023-01-25T12:00:36.850Z,94.10
2023-01-25T12:04:29.729Z,94.00
2023-01-25T12:08:04.309Z,94.50
2023-01-25T12:11:41.231Z,94.50
2023-01-25T12:15:22.923Z,94.40
2023-01-25T12:19:11.329Z,94.60
2023-01-25T12:22:46.892Z,94.50
2023-01-25T12:26:22.287Z,94.70
2023-01-25T12:29:50.869Z,94.40
2023-01-25T12:33:19.844Z,94.10
2023-01-25T12:36:47.741Z,94.20
2023-01-25T12:40:16.482Z,94.50
2023-01-25T12:43:46.380Z,94.30
2023-01-25T12:47:15.899Z,94.40
2023-01-25T12:50:43.399Z,94.40
2023-01-25T12:54:17.534Z,94.30
2023-01-25T12:57:49.282Z,94.10
2023-01-25T13:01:24.121Z,94.20
2023-01-25T13:05:02.453Z,93.80
2023-01-25T13:08:38.379Z,93.80
2023-01-25T13:12:05.825Z,93.80
2023-01-25T13:15:37.481Z,94.30
2023-01-25T13:19:01.114Z,94.40
2023-01-25T13:22:58.654Z,94.40
2023-01-25T13:26:49.581Z,94.40
2023-01-25T13:30:33.256Z,94.50
2023-01-25T13:33:57.462Z,94.50
2023-01-25T13:37:23.587Z,94.20
2023-01-25T13:41:03.487Z,94.50
2023-01-25T13:44:30.004Z,94.40
2023-01-25T13:48:06.649Z,94.50
2023-01-25T13:51:35.913Z,94.80
2023-01-25T13:55:00.371Z,94.80
2023-01-25T13:58:26.148Z,94.90
2023-01-25T14:01:49.909Z,95.00
2023-01-25T14:05:22.702Z,94.90
2023-01-25T14:08:47.201Z,95.10
2023-01-25T14:12:12.486Z,95.50
2023-01-25T14:15:36.138Z,95.00
2023-01-25T14:19:23.665Z,94.80
2023-01-25T14:22:50.495Z,94.50
2023-01-25T14:26:20.124Z,94.20
2023-01-25T14:29:49.909Z,94.20
2023-01-25T14:33:20.823Z,94.10
2023-01-25T14:36:44.397Z,93.90
2023-01-25T14:40:14.498Z,93.90
2023-01-25T14:43:38.787Z,94.10
2023-01-25T14:47:23.318Z,94.00
2023-01-25T14:50:47.546Z,94.00
2023-01-25T14:54:19.301Z,93.90
2023-01-25T14:57:45.935Z,93.70
2023-01-25T15:01:26.784Z,93.70
2023-01-25T15:05:02.817Z,93.60
2023-01-25T15:08:38.440Z,93.40
2023-01-25T15:12:03.455Z,93.20
2023-01-25T15:15:31.345Z,92.90
2023-01-25T15:18:57.478Z,92.90
2023-01-25T15:22:23.083Z,92.50
2023-01-25T15:25:51.810Z,92.40
2023-01-25T15:29:17.541Z,92.70
2023-01-25T15:32:42.786Z,92.70
2023-01-25T15:36:06.942Z,92.60
2023-01-25T15:39:32.598Z,92.60
2023-01-25T15:42:56.267Z,92.60
2023-01-25T15:46:22.836Z,92.70
2023-01-25T15:49:49.519Z,92.50
2023-01-25T15:53:15.985Z,92.30
2023-01-25T15:56:42.832Z,92.30
2023-01-25T16:00:08.018Z,92.30
2023-01-25T16:03:32.451Z,92.10
2023-01-25T16:06:58.707Z,92.10
2023-01-25T16:10:24.667Z,92.20
2023-01-25T16:13:48.251Z,92.20
2023-01-25T16:17:19.302Z,92.20
2023-01-25T16:20:44.274Z,92.20
2023-01-25T16:24:10.685Z,92.10
2023-01-25T16:27:35.830Z,92.00
2023-01-25T16:30:59.562Z,92.00
2023-01-25T16:34:23.903Z,92.00
2023-01-25T16:37:47.834Z,91.90
2023-01-25T16:41:13.531Z,91.70
2023-01-25T16:44:37.289Z,91.70
2023-01-25T16:48:01.797Z,91.70
2023-01-25T16:51:27.841Z,92.00
2023-01-25T16:54:51.502Z,92.00
2023-01-25T16:58:16.519Z,91.80
2023-01-25T17:01:41.396Z,91.70
2023-01-25T17:05:05.514Z,91.80
2023-01-25T17:08:29.221Z,91.90
2023-01-25T17:11:52.925Z,91.60
2023-01-25T17:15:19.892Z,91.70
2023-01-25T17:18:43.726Z,92.00
2023-01-25T17:22:07.426Z,91.90
2023-01-25T17:25:33.694Z,92.10
2023-01-25T17:28:58.376Z,92.00
2023-01-25T17:32:23.880Z,92.00
2023-01-25T17:35:47.591Z,91.70
2023-01-25T17:39:14.438Z,91.40
2023-01-25T17:42:38.022Z,91.30
2023-01-25T17:46:11.280Z,91.30
2023-01-25T17:49:36.595Z,91.50
2023-01-25T17:53:00.183Z,91.30
2023-01-25T17:56:23.973Z,91.20
2023-01-25T17:59:47.725Z,91.30
2023-01-25T18:03:11.341Z,91.30
2023-01-25T18:06:37.080Z,91.20
2023-01-25T18:10:00.699Z,91.30
2023-01-25T18:13:24.288Z,90.90
2023-01-25T18:16:47.930Z,90.90
2023-01-25T18:20:12.784Z,90.80
2023-01-25T18:23:39.154Z,90.70
2023-01-25T18:27:06.896Z,90.60
2023-01-25T18:30:36.907Z,90.70
2023-01-25T18:34:00.561Z,90.90
2023-01-25T18:37:29.203Z,90.80
2023-01-25T18:40:54.724Z,90.60
2023-01-25T18:44:19.735Z,90.70
2023-01-25T18:47:43.429Z,90.80
2023-01-25T18:51:12.776Z,90.70
2023-01-25T18:54:36.374Z,90.50
2023-01-25T18:58:04.045Z,90.40
2023-01-25T19:01:27.922Z,90.30
2023-01-25T19:04:51.463Z,90.60
2023-01-25T19:08:15.062Z,90.40
2023-01-25T19:11:38.647Z,90.70
2023-01-25T19:15:03.599Z,90.70
2023-01-25T19:18:30.671Z,90.70
2023-01-25T19:21:54.197Z,90.80
2023-01-25T19:25:18.061Z,90.80
2023-01-25T19:28:42.149Z,90.60
2023-01-25T19:32:07.359Z,91.10
2023-01-25T19:35:30.987Z,90.70
2023-01-25T19:38:55.021Z,91.00
2023-01-25T19:42:18.837Z,90.90
2023-01-25T19:45:42.580Z,90.90
2023-01-25T19:49:09.056Z,90.50
2023-01-25T19:52:32.881Z,90.40
2023-01-25T19:56:01.684Z,90.30
2023-01-25T19:59:27.496Z,90.30
2023-01-25T20:02:51.133Z,90.30
2023-01-25T20:06:18.413Z,90.30
2023-01-25T20:09:42.008Z,90.30
2023-01-25T20:13:05.585Z,90.30
2023-01-25T20:16:30.448Z,90.20
2023-01-25T20:19:53.995Z,90.30
2023-01-25T20:23:18.897Z,90.30
2023-01-25T20:26:43.460Z,90.50
2023-01-25T20:30:08.484Z,90.30
2023-01-25T20:33:32.184Z,90.40
2023-01-25T20:36:55.804Z,90.40
2023-01-25T20:40:21.114Z,90.40
2023-01-25T20:43:47.975Z,90.50
2023-01-25T20:47:11.617Z,90.60
2023-01-25T20:50:35.209Z,90.60
2023-01-25T20:53:59.008Z,90.50
2023-01-25T20:57:24.034Z,90.10
2023-01-25T21:00:48.032Z,90.00
2023-01-25T21:04:11.679Z,89.90
2023-01-25T21:07:35.217Z,90.00
2023-01-25T21:11:00.421Z,89.20
2023-01-25T21:14:25.343Z,89.60
2023-01-25T21:17:52.567Z,90.00
2023-01-25T21:21:18.142Z,90.20
2023-01-25T21:24:41.885Z,89.70
2023-01-25T21:28:05.961Z,90.00
2023-01-25T21:31:33.749Z,89.80
2023-01-25T21:34:57.474Z,89.80
2023-01-25T21:38:21.283Z,90.10
2023-01-25T21:41:45.086Z,90.20
2023-01-25T21:45:32.327Z,90.10
2023-01-25T21:49:19.422Z,90.10
2023-01-25T21:52:43.008Z,90.00
2023-01-25T21:56:06.935Z,90.20
2023-01-25T21:59:30.512Z,90.30
2023-01-25T22:02:54.124Z,90.10
2023-01-25T22:06:20.911Z,89.80
2023-01-25T22:09:44.518Z,89.90
2023-01-25T22:13:08.030Z,89.70
2023-01-25T22:16:31.936Z,89.60
2023-01-25T22:19:58.898Z,89.50
2023-01-25T22:23:23.942Z,89.00
2023-01-25T22:26:51.792Z,89.20
2023-01-25T22:30:15.832Z,88.70
2023-01-25T22:33:39.492Z,88.20
2023-01-25T22:37:03.191Z,88.40
2023-01-25T22:40:28.106Z,88.00
2023-01-25T22:43:52.064Z,88.40
2023-01-25T22:47:15.746Z,88.50
2023-01-25T22:50:39.243Z,88.30
2023-01-25T22:54:02.822Z,88.10
2023-01-25T22:57:27.678Z,88.30
2023-01-25T23:00:53.126Z,88.60
2023-01-25T23:04:16.887Z,88.50
2023-01-25T23:07:40.675Z,88.10
2023-01-25T23:11:05.720Z,87.90
2023-01-25T23:14:51.175Z,87.70
2023-01-25T23:18:32.103Z,87.80
2023-01-25T23:21:55.698Z,88.30
2023-01-25T23:25:19.340Z,88.40
2023-01-25T23:28:43.511Z,88.60
2023-01-25T23:32:08.717Z,88.30
2023-01-25T23:35:32.319Z,88.40
2023-01-25T23:38:56.561Z,87.90
2023-01-25T23:42:20.253Z,88.30
2023-01-25T23:45:46.872Z,88.00
2023-01-25T23:49:14.303Z,88.20
2023-01-25T23:52:38.009Z,88.60
2023-01-25T23:56:05.882Z,89.10
2023-01-25T23:59:32.299Z,89.70
